sensor_id;sensor_type;location;lat;lon;timestamp;P1;durP1;ratioP1;P2;durP2;ratioP2
70420;SDS011;57848;51.938;15.520;2022-10-16T00:02:19;22.23;;;12.77;;
70420;SDS011;57848;51.938;15.520;2022-10-16T00:04:44;21.90;;;12.53;;
70420;SDS011;57848;51.938;15.520;2022-10-16T00:07:09;20.53;;;12.57;;
70420;SDS011;57848;51.938;15.520;2022-10-16T00:09:35;21.47;;;12.37;;
70420;SDS011;57848;51.938;15.520;2022-10-16T00:12:00;18.70;;;11.87;;
70420;SDS011;57848;51.938;15.520;2022-10-16T00:14:25;25.97;;;13.00;;
70420;SDS011;57848;51.938;15.520;2022-10-16T00:16:50;18.10;;;10.67;;
70420;SDS011;57848;51.938;15.520;2022-10-16T00:19:16;19.80;;;11.80;;
70420;SDS011;57848;51.938;15.520;2022-10-16T00:21:41;19.70;;;11.57;;
70420;SDS011;57848;51.938;15.520;2022-10-16T00:24:07;18.03;;;11.33;;
70420;SDS011;57848;51.938;15.520;2022-10-16T00:26:34;19.87;;;13.10;;
70420;SDS011;57848;51.938;15.520;2022-10-16T00:29:00;22.10;;;12.13;;
70420;SDS011;57848;51.938;15.520;2022-10-16T00:31:26;18.48;;;12.00;;
70420;SDS011;57848;51.938;15.520;2022-10-16T00:33:52;19.63;;;11.97;;
70420;SDS011;57848;51.938;15.520;2022-10-16T00:36:18;17.45;;;10.88;;
70420;SDS011;57848;51.938;15.520;2022-10-16T00:38:46;17.77;;;11.27;;
70420;SDS011;57848;51.938;15.520;2022-10-16T00:41:14;18.27;;;11.60;;
70420;SDS011;57848;51.938;15.520;2022-10-16T00:43:42;18.83;;;11.88;;
70420;SDS011;57848;51.938;15.520;2022-10-16T00:46:15;17.13;;;10.93;;
70420;SDS011;57848;51.938;15.520;2022-10-16T00:48:41;23.25;;;11.35;;
70420;SDS011;57848;51.938;15.520;2022-10-16T00:51:10;19.23;;;11.13;;
70420;SDS011;57848;51.938;15.520;2022-10-16T00:53:36;18.50;;;10.47;;
70420;SDS011;57848;51.938;15.520;2022-10-16T00:56:01;17.63;;;10.95;;
70420;SDS011;57848;51.938;15.520;2022-10-16T00:58:27;17.97;;;10.57;;
70420;SDS011;57848;51.938;15.520;2022-10-16T01:00:52;17.97;;;10.83;;
70420;SDS011;57848;51.938;15.520;2022-10-16T01:05:49;17.58;;;10.50;;
70420;SDS011;57848;51.938;15.520;2022-10-16T01:09:06;17.73;;;10.35;;
70420;SDS011;57848;51.938;15.520;2022-10-16T01:11:30;19.17;;;10.75;;
70420;SDS011;57848;51.938;15.520;2022-10-16T01:14:05;18.43;;;9.77;;
70420;SDS011;57848;51.938;15.520;2022-10-16T01:16:44;15.95;;;9.65;;
70420;SDS011;57848;51.938;15.520;2022-10-16T01:19:20;17.20;;;10.00;;
70420;SDS011;57848;51.938;15.520;2022-10-16T01:22:01;15.48;;;9.60;;
70420;SDS011;57848;51.938;15.520;2022-10-16T01:24:33;14.40;;;9.23;;
70420;SDS011;57848;51.938;15.520;2022-10-16T01:27:09;14.47;;;8.93;;
70420;SDS011;57848;51.938;15.520;2022-10-16T01:32:28;15.48;;;10.32;;
70420;SDS011;57848;51.938;15.520;2022-10-16T01:34:59;13.35;;;8.55;;
70420;SDS011;57848;51.938;15.520;2022-10-16T01:37:31;15.55;;;8.77;;
70420;SDS011;57848;51.938;15.520;2022-10-16T01:40:00;13.87;;;8.97;;
70420;SDS011;57848;51.938;15.520;2022-10-16T01:42:32;14.68;;;9.68;;
70420;SDS011;57848;51.938;15.520;2022-10-16T01:45:02;15.80;;;8.85;;
70420;SDS011;57848;51.938;15.520;2022-10-16T01:47:31;13.82;;;8.35;;
70420;SDS011;57848;51.938;15.520;2022-10-16T01:49:58;21.23;;;9.50;;
70420;SDS011;57848;51.938;15.520;2022-10-16T01:52:26;14.83;;;8.60;;
70420;SDS011;57848;51.938;15.520;2022-10-16T01:54:54;12.35;;;7.97;;
70420;SDS011;57848;51.938;15.520;2022-10-16T01:57:22;14.48;;;8.70;;
70420;SDS011;57848;51.938;15.520;2022-10-16T01:59:51;13.77;;;8.70;;
70420;SDS011;57848;51.938;15.520;2022-10-16T02:02:19;13.00;;;7.53;;
70420;SDS011;57848;51.938;15.520;2022-10-16T02:04:49;13.53;;;7.63;;
70420;SDS011;57848;51.938;15.520;2022-10-16T02:07:22;12.48;;;7.85;;
70420;SDS011;57848;51.938;15.520;2022-10-16T02:09:48;14.27;;;8.07;;
70420;SDS011;57848;51.938;15.520;2022-10-16T02:12:14;14.67;;;8.50;;
70420;SDS011;57848;51.938;15.520;2022-10-16T02:14:54;15.37;;;8.33;;
70420;SDS011;57848;51.938;15.520;2022-10-16T02:17:20;13.63;;;8.52;;
70420;SDS011;57848;51.938;15.520;2022-10-16T02:19:46;13.40;;;7.97;;
70420;SDS011;57848;51.938;15.520;2022-10-16T02:24:58;13.70;;;8.50;;
70420;SDS011;57848;51.938;15.520;2022-10-16T02:32:55;13.02;;;8.02;;
70420;SDS011;57848;51.938;15.520;2022-10-16T02:35:22;15.65;;;8.60;;
70420;SDS011;57848;51.938;15.520;2022-10-16T02:37:49;13.93;;;8.37;;
70420;SDS011;57848;51.938;15.520;2022-10-16T02:40:15;12.90;;;8.40;;
70420;SDS011;57848;51.938;15.520;2022-10-16T02:42:42;13.77;;;8.50;;
70420;SDS011;57848;51.938;15.520;2022-10-16T02:45:08;13.70;;;8.57;;
70420;SDS011;57848;51.938;15.520;2022-10-16T02:47:36;16.38;;;9.15;;
70420;SDS011;57848;51.938;15.520;2022-10-16T02:50:01;14.13;;;9.47;;
70420;SDS011;57848;51.938;15.520;2022-10-16T02:52:26;13.37;;;8.33;;
70420;SDS011;57848;51.938;15.520;2022-10-16T02:54:52;14.10;;;9.60;;
70420;SDS011;57848;51.938;15.520;2022-10-16T02:57:17;13.33;;;8.80;;
70420;SDS011;57848;51.938;15.520;2022-10-16T02:59:43;15.07;;;8.53;;
70420;SDS011;57848;51.938;15.520;2022-10-16T03:02:08;15.38;;;9.45;;
70420;SDS011;57848;51.938;15.520;2022-10-16T03:04:33;15.53;;;9.77;;
70420;SDS011;57848;51.938;15.520;2022-10-16T03:06:59;16.00;;;8.77;;
70420;SDS011;57848;51.938;15.520;2022-10-16T03:09:24;17.03;;;10.00;;
70420;SDS011;57848;51.938;15.520;2022-10-16T03:11:49;15.87;;;9.40;;
70420;SDS011;57848;51.938;15.520;2022-10-16T03:14:15;15.07;;;9.30;;
70420;SDS011;57848;51.938;15.520;2022-10-16T03:16:41;14.10;;;9.20;;
70420;SDS011;57848;51.938;15.520;2022-10-16T03:19:07;15.17;;;9.73;;
70420;SDS011;57848;51.938;15.520;2022-10-16T03:21:32;17.07;;;10.10;;
70420;SDS011;57848;51.938;15.520;2022-10-16T03:23:57;15.53;;;9.17;;
70420;SDS011;57848;51.938;15.520;2022-10-16T03:26:23;15.47;;;9.70;;
70420;SDS011;57848;51.938;15.520;2022-10-16T03:28:48;16.20;;;9.80;;
70420;SDS011;57848;51.938;15.520;2022-10-16T03:31:13;16.03;;;9.73;;
70420;SDS011;57848;51.938;15.520;2022-10-16T03:33:39;15.35;;;9.05;;
70420;SDS011;57848;51.938;15.520;2022-10-16T03:36:04;16.13;;;9.93;;
70420;SDS011;57848;51.938;15.520;2022-10-16T03:38:29;15.30;;;8.70;;
70420;SDS011;57848;51.938;15.520;2022-10-16T03:40:55;16.83;;;10.07;;
70420;SDS011;57848;51.938;15.520;2022-10-16T03:43:20;15.30;;;9.30;;
70420;SDS011;57848;51.938;15.520;2022-10-16T03:45:45;16.37;;;9.20;;
70420;SDS011;57848;51.938;15.520;2022-10-16T03:48:10;16.07;;;10.30;;
70420;SDS011;57848;51.938;15.520;2022-10-16T03:50:36;14.95;;;9.63;;
70420;SDS011;57848;51.938;15.520;2022-10-16T03:53:02;15.67;;;9.97;;
70420;SDS011;57848;51.938;15.520;2022-10-16T03:55:28;16.83;;;10.65;;
70420;SDS011;57848;51.938;15.520;2022-10-16T03:57:53;17.30;;;10.00;;
70420;SDS011;57848;51.938;15.520;2022-10-16T04:00:18;16.63;;;10.50;;
70420;SDS011;57848;51.938;15.520;2022-10-16T04:02:44;17.10;;;10.83;;
70420;SDS011;57848;51.938;15.520;2022-10-16T04:05:09;16.60;;;9.83;;
70420;SDS011;57848;51.938;15.520;2022-10-16T04:07:34;17.23;;;10.03;;
70420;SDS011;57848;51.938;15.520;2022-10-16T04:10:00;17.73;;;9.87;;
70420;SDS011;57848;51.938;15.520;2022-10-16T04:12:25;17.15;;;9.95;;
70420;SDS011;57848;51.938;15.520;2022-10-16T04:14:51;15.53;;;9.53;;
70420;SDS011;57848;51.938;15.520;2022-10-16T04:17:17;15.15;;;10.05;;
70420;SDS011;57848;51.938;15.520;2022-10-16T04:19:42;16.70;;;10.23;;
70420;SDS011;57848;51.938;15.520;2022-10-16T04:22:07;16.67;;;10.33;;
70420;SDS011;57848;51.938;15.520;2022-10-16T04:24:33;15.20;;;9.30;;
70420;SDS011;57848;51.938;15.520;2022-10-16T04:26:58;16.20;;;9.60;;
70420;SDS011;57848;51.938;15.520;2022-10-16T04:29:23;16.23;;;9.93;;
70420;SDS011;57848;51.938;15.520;2022-10-16T04:31:49;16.60;;;9.63;;
70420;SDS011;57848;51.938;15.520;2022-10-16T04:34:14;16.20;;;9.43;;
70420;SDS011;57848;51.938;15.520;2022-10-16T04:36:40;16.07;;;9.13;;
70420;SDS011;57848;51.938;15.520;2022-10-16T04:39:05;18.07;;;9.87;;
70420;SDS011;57848;51.938;15.520;2022-10-16T04:41:30;15.37;;;9.13;;
70420;SDS011;57848;51.938;15.520;2022-10-16T04:43:55;16.80;;;9.40;;
70420;SDS011;57848;51.938;15.520;2022-10-16T04:46:21;14.43;;;9.13;;
70420;SDS011;57848;51.938;15.520;2022-10-16T04:48:46;16.57;;;8.93;;
70420;SDS011;57848;51.938;15.520;2022-10-16T04:51:11;16.10;;;9.10;;
70420;SDS011;57848;51.938;15.520;2022-10-16T04:53:37;13.87;;;9.13;;
70420;SDS011;57848;51.938;15.520;2022-10-16T04:56:02;14.60;;;8.60;;
70420;SDS011;57848;51.938;15.520;2022-10-16T04:58:28;13.82;;;8.98;;
70420;SDS011;57848;51.938;15.520;2022-10-16T05:00:53;20.17;;;8.57;;
70420;SDS011;57848;51.938;15.520;2022-10-16T05:03:18;13.43;;;8.03;;
70420;SDS011;57848;51.938;15.520;2022-10-16T05:05:44;12.87;;;7.80;;
70420;SDS011;57848;51.938;15.520;2022-10-16T05:08:11;13.95;;;9.02;;
70420;SDS011;57848;51.938;15.520;2022-10-16T05:10:38;14.33;;;7.80;;
70420;SDS011;57848;51.938;15.520;2022-10-16T05:13:03;12.93;;;8.25;;
70420;SDS011;57848;51.938;15.520;2022-10-16T05:15:29;13.23;;;8.90;;
70420;SDS011;57848;51.938;15.520;2022-10-16T05:17:55;15.60;;;8.70;;
70420;SDS011;57848;51.938;15.520;2022-10-16T05:20:21;13.95;;;8.57;;
70420;SDS011;57848;51.938;15.520;2022-10-16T05:22:46;14.80;;;9.02;;
70420;SDS011;57848;51.938;15.520;2022-10-16T05:25:12;15.37;;;9.00;;
70420;SDS011;57848;51.938;15.520;2022-10-16T05:27:37;14.10;;;8.57;;
70420;SDS011;57848;51.938;15.520;2022-10-16T05:30:02;12.23;;;7.87;;
70420;SDS011;57848;51.938;15.520;2022-10-16T05:32:28;15.50;;;9.07;;
70420;SDS011;57848;51.938;15.520;2022-10-16T05:34:53;14.18;;;8.52;;
70420;SDS011;57848;51.938;15.520;2022-10-16T05:37:19;14.47;;;8.73;;
70420;SDS011;57848;51.938;15.520;2022-10-16T05:39:44;14.23;;;8.30;;
70420;SDS011;57848;51.938;15.520;2022-10-16T05:42:09;13.93;;;8.30;;
70420;SDS011;57848;51.938;15.520;2022-10-16T05:44:34;14.90;;;8.57;;
70420;SDS011;57848;51.938;15.520;2022-10-16T05:47:00;13.37;;;8.57;;
70420;SDS011;57848;51.938;15.520;2022-10-16T05:49:25;14.43;;;8.20;;
70420;SDS011;57848;51.938;15.520;2022-10-16T05:51:50;14.03;;;8.30;;
70420;SDS011;57848;51.938;15.520;2022-10-16T05:54:16;13.53;;;8.43;;
70420;SDS011;57848;51.938;15.520;2022-10-16T05:56:41;13.15;;;7.97;;
70420;SDS011;57848;51.938;15.520;2022-10-16T05:59:07;14.83;;;8.57;;
70420;SDS011;57848;51.938;15.520;2022-10-16T06:01:32;13.10;;;8.67;;
70420;SDS011;57848;51.938;15.520;2022-10-16T06:03:58;14.00;;;9.20;;
70420;SDS011;57848;51.938;15.520;2022-10-16T06:06:25;15.30;;;8.17;;
70420;SDS011;57848;51.938;15.520;2022-10-16T06:08:52;13.50;;;8.20;;
70420;SDS011;57848;51.938;15.520;2022-10-16T06:11:20;14.00;;;8.57;;
70420;SDS011;57848;51.938;15.520;2022-10-16T06:13:50;15.45;;;8.60;;
70420;SDS011;57848;51.938;15.520;2022-10-16T06:16:16;14.57;;;7.85;;
70420;SDS011;57848;51.938;15.520;2022-10-16T06:18:42;14.30;;;7.82;;
70420;SDS011;57848;51.938;15.520;2022-10-16T06:21:08;14.03;;;8.47;;
70420;SDS011;57848;51.938;15.520;2022-10-16T06:23:35;13.13;;;7.95;;
70420;SDS011;57848;51.938;15.520;2022-10-16T06:26:04;15.70;;;8.20;;
70420;SDS011;57848;51.938;15.520;2022-10-16T06:28:30;12.77;;;7.72;;
70420;SDS011;57848;51.938;15.520;2022-10-16T06:31:02;14.47;;;8.73;;
70420;SDS011;57848;51.938;15.520;2022-10-16T06:33:29;13.52;;;9.15;;
70420;SDS011;57848;51.938;15.520;2022-10-16T06:36:00;15.30;;;8.30;;
70420;SDS011;57848;51.938;15.520;2022-10-16T06:38:29;12.75;;;7.90;;
70420;SDS011;57848;51.938;15.520;2022-10-16T06:40:55;13.87;;;7.93;;
70420;SDS011;57848;51.938;15.520;2022-10-16T06:43:20;14.18;;;7.75;;
70420;SDS011;57848;51.938;15.520;2022-10-16T06:45:55;14.00;;;7.90;;
70420;SDS011;57848;51.938;15.520;2022-10-16T06:48:22;13.77;;;7.88;;
70420;SDS011;57848;51.938;15.520;2022-10-16T06:50:58;12.37;;;7.80;;
70420;SDS011;57848;51.938;15.520;2022-10-16T06:53:25;14.45;;;8.45;;
70420;SDS011;57848;51.938;15.520;2022-10-16T06:55:52;13.15;;;7.95;;
70420;SDS011;57848;51.938;15.520;2022-10-16T06:58:17;15.13;;;7.83;;
70420;SDS011;57848;51.938;15.520;2022-10-16T07:00:43;12.48;;;7.68;;
70420;SDS011;57848;51.938;15.520;2022-10-16T07:03:08;12.63;;;7.60;;
70420;SDS011;57848;51.938;15.520;2022-10-16T07:05:37;12.43;;;8.10;;
70420;SDS011;57848;51.938;15.520;2022-10-16T07:08:06;12.75;;;7.75;;
70420;SDS011;57848;51.938;15.520;2022-10-16T07:10:32;14.38;;;8.48;;
70420;SDS011;57848;51.938;15.520;2022-10-16T07:12:57;13.77;;;8.57;;
70420;SDS011;57848;51.938;15.520;2022-10-16T07:15:23;14.67;;;7.67;;
70420;SDS011;57848;51.938;15.520;2022-10-16T07:17:50;12.55;;;7.75;;
70420;SDS011;57848;51.938;15.520;2022-10-16T07:20:15;13.60;;;7.87;;
70420;SDS011;57848;51.938;15.520;2022-10-16T07:22:40;13.03;;;8.07;;
70420;SDS011;57848;51.938;15.520;2022-10-16T07:25:06;12.38;;;8.07;;
70420;SDS011;57848;51.938;15.520;2022-10-16T07:27:32;13.10;;;8.17;;
70420;SDS011;57848;51.938;15.520;2022-10-16T07:29:57;11.80;;;7.53;;
70420;SDS011;57848;51.938;15.520;2022-10-16T07:32:22;14.73;;;8.03;;
70420;SDS011;57848;51.938;15.520;2022-10-16T07:34:48;14.57;;;7.60;;
70420;SDS011;57848;51.938;15.520;2022-10-16T07:37:13;13.80;;;8.37;;
70420;SDS011;57848;51.938;15.520;2022-10-16T07:39:39;11.57;;;7.60;;
70420;SDS011;57848;51.938;15.520;2022-10-16T07:42:04;13.87;;;7.50;;
70420;SDS011;57848;51.938;15.520;2022-10-16T07:44:29;12.93;;;7.33;;
70420;SDS011;57848;51.938;15.520;2022-10-16T07:46:55;11.93;;;7.10;;
70420;SDS011;57848;51.938;15.520;2022-10-16T07:49:20;10.93;;;6.93;;
70420;SDS011;57848;51.938;15.520;2022-10-16T07:51:46;11.23;;;6.80;;
70420;SDS011;57848;51.938;15.520;2022-10-16T07:54:11;12.40;;;6.47;;
70420;SDS011;57848;51.938;15.520;2022-10-16T07:56:36;12.80;;;6.23;;
70420;SDS011;57848;51.938;15.520;2022-10-16T07:59:02;11.77;;;6.20;;
70420;SDS011;57848;51.938;15.520;2022-10-16T08:01:27;11.63;;;6.50;;
70420;SDS011;57848;51.938;15.520;2022-10-16T08:03:52;11.93;;;6.23;;
70420;SDS011;57848;51.938;15.520;2022-10-16T08:06:19;11.93;;;6.97;;
70420;SDS011;57848;51.938;15.520;2022-10-16T08:08:45;11.33;;;6.30;;
70420;SDS011;57848;51.938;15.520;2022-10-16T08:11:11;10.32;;;6.20;;
70420;SDS011;57848;51.938;15.520;2022-10-16T08:13:36;11.47;;;5.87;;
70420;SDS011;57848;51.938;15.520;2022-10-16T08:16:02;10.27;;;5.40;;
70420;SDS011;57848;51.938;15.520;2022-10-16T08:18:32;10.00;;;5.67;;
70420;SDS011;57848;51.938;15.520;2022-10-16T08:21:01;10.98;;;5.53;;
70420;SDS011;57848;51.938;15.520;2022-10-16T08:23:28;11.55;;;6.15;;
70420;SDS011;57848;51.938;15.520;2022-10-16T08:25:53;13.10;;;5.40;;
70420;SDS011;57848;51.938;15.520;2022-10-16T08:28:20;10.10;;;5.78;;
70420;SDS011;57848;51.938;15.520;2022-10-16T08:30:45;9.52;;;5.40;;
70420;SDS011;57848;51.938;15.520;2022-10-16T08:33:11;12.77;;;5.70;;
70420;SDS011;57848;51.938;15.520;2022-10-16T08:35:36;9.37;;;5.40;;
70420;SDS011;57848;51.938;15.520;2022-10-16T08:38:05;10.70;;;5.15;;
70420;SDS011;57848;51.938;15.520;2022-10-16T08:40:31;9.63;;;5.50;;
70420;SDS011;57848;51.938;15.520;2022-10-16T08:45:32;8.80;;;5.05;;
70420;SDS011;57848;51.938;15.520;2022-10-16T08:50:49;10.88;;;5.13;;
70420;SDS011;57848;51.938;15.520;2022-10-16T08:53:18;8.20;;;4.40;;
70420;SDS011;57848;51.938;15.520;2022-10-16T08:55:50;7.55;;;3.92;;
70420;SDS011;57848;51.938;15.520;2022-10-16T08:58:18;8.70;;;4.68;;
70420;SDS011;57848;51.938;15.520;2022-10-16T09:00:58;9.38;;;4.90;;
70420;SDS011;57848;51.938;15.520;2022-10-16T09:03:35;8.80;;;4.85;;
70420;SDS011;57848;51.938;15.520;2022-10-16T09:19:44;7.80;;;3.17;;
70420;SDS011;57848;51.938;15.520;2022-10-16T09:22:15;8.98;;;3.47;;
70420;SDS011;57848;51.938;15.520;2022-10-16T09:24:41;7.38;;;3.45;;
70420;SDS011;57848;51.938;15.520;2022-10-16T09:27:11;6.30;;;2.80;;
70420;SDS011;57848;51.938;15.520;2022-10-16T09:29:38;6.82;;;2.38;;
70420;SDS011;57848;51.938;15.520;2022-10-16T09:32:08;6.03;;;2.70;;
70420;SDS011;57848;51.938;15.520;2022-10-16T09:34:39;6.05;;;2.60;;
70420;SDS011;57848;51.938;15.520;2022-10-16T09:37:09;5.75;;;2.50;;
70420;SDS011;57848;51.938;15.520;2022-10-16T09:39:44;5.57;;;2.15;;
70420;SDS011;57848;51.938;15.520;2022-10-16T09:42:23;5.70;;;2.30;;
70420;SDS011;57848;51.938;15.520;2022-10-16T09:44:55;7.53;;;2.67;;
70420;SDS011;57848;51.938;15.520;2022-10-16T09:47:22;7.55;;;3.13;;
70420;SDS011;57848;51.938;15.520;2022-10-16T09:49:54;6.80;;;3.30;;
70420;SDS011;57848;51.938;15.520;2022-10-16T09:52:27;7.05;;;3.72;;
70420;SDS011;57848;51.938;15.520;2022-10-16T09:54:53;7.17;;;3.50;;
70420;SDS011;57848;51.938;15.520;2022-10-16T09:57:21;7.10;;;3.60;;
70420;SDS011;57848;51.938;15.520;2022-10-16T09:59:48;8.18;;;3.53;;
70420;SDS011;57848;51.938;15.520;2022-10-16T10:02:20;7.10;;;3.67;;
70420;SDS011;57848;51.938;15.520;2022-10-16T10:04:53;8.50;;;3.30;;
70420;SDS011;57848;51.938;15.520;2022-10-16T10:07:42;7.53;;;2.87;;
70420;SDS011;57848;51.938;15.520;2022-10-16T10:10:20;6.32;;;2.80;;
70420;SDS011;57848;51.938;15.520;2022-10-16T10:12:47;5.93;;;2.83;;
70420;SDS011;57848;51.938;15.520;2022-10-16T10:15:13;7.13;;;2.80;;
70420;SDS011;57848;51.938;15.520;2022-10-16T10:17:55;5.65;;;2.42;;
70420;SDS011;57848;51.938;15.520;2022-10-16T10:22:53;6.13;;;2.90;;
70420;SDS011;57848;51.938;15.520;2022-10-16T10:25:29;6.33;;;3.13;;
70420;SDS011;57848;51.938;15.520;2022-10-16T10:34:56;6.00;;;2.97;;
70420;SDS011;57848;51.938;15.520;2022-10-16T10:37:12;8.05;;;2.92;;
70420;SDS011;57848;51.938;15.520;2022-10-16T10:39:57;7.27;;;3.17;;
70420;SDS011;57848;51.938;15.520;2022-10-16T10:45:38;6.47;;;3.38;;
70420;SDS011;57848;51.938;15.520;2022-10-16T10:50:50;6.75;;;3.17;;
70420;SDS011;57848;51.938;15.520;2022-10-16T10:56:17;6.90;;;2.70;;
70420;SDS011;57848;51.938;15.520;2022-10-16T11:01:54;5.97;;;2.88;;
70420;SDS011;57848;51.938;15.520;2022-10-16T11:07:39;5.87;;;2.70;;
70420;SDS011;57848;51.938;15.520;2022-10-16T11:10:23;5.85;;;2.85;;
70420;SDS011;57848;51.938;15.520;2022-10-16T11:12:55;5.97;;;2.17;;
70420;SDS011;57848;51.938;15.520;2022-10-16T11:15:34;6.55;;;2.35;;
70420;SDS011;57848;51.938;15.520;2022-10-16T11:20:53;6.97;;;2.00;;
70420;SDS011;57848;51.938;15.520;2022-10-16T11:23:29;7.43;;;1.92;;
70420;SDS011;57848;51.938;15.520;2022-10-16T11:26:00;6.60;;;2.30;;
70420;SDS011;57848;51.938;15.520;2022-10-16T11:28:31;7.13;;;2.63;;
70420;SDS011;57848;51.938;15.520;2022-10-16T11:31:08;6.80;;;1.88;;
70420;SDS011;57848;51.938;15.520;2022-10-16T11:36:33;6.78;;;2.10;;
70420;SDS011;57848;51.938;15.520;2022-10-16T11:39:19;5.40;;;2.10;;
70420;SDS011;57848;51.938;15.520;2022-10-16T11:47:21;5.40;;;2.10;;
70420;SDS011;57848;51.938;15.520;2022-10-16T11:49:52;6.95;;;1.90;;
70420;SDS011;57848;51.938;15.520;2022-10-16T11:52:24;6.85;;;2.20;;
70420;SDS011;57848;51.938;15.520;2022-10-16T11:54:55;5.80;;;2.30;;
70420;SDS011;57848;51.938;15.520;2022-10-16T11:57:26;5.35;;;1.98;;
70420;SDS011;57848;51.938;15.520;2022-10-16T12:00:02;6.93;;;2.07;;
70420;SDS011;57848;51.938;15.520;2022-10-16T12:05:24;5.60;;;1.98;;
70420;SDS011;57848;51.938;15.520;2022-10-16T12:10:40;4.90;;;1.85;;
70420;SDS011;57848;51.938;15.520;2022-10-16T12:18:36;4.93;;;1.60;;
70420;SDS011;57848;51.938;15.520;2022-10-16T12:21:02;7.03;;;1.50;;
70420;SDS011;57848;51.938;15.520;2022-10-16T12:23:32;4.83;;;1.57;;
70420;SDS011;57848;51.938;15.520;2022-10-16T12:26:02;4.75;;;1.52;;
70420;SDS011;57848;51.938;15.520;2022-10-16T12:28:29;4.80;;;1.55;;
70420;SDS011;57848;51.938;15.520;2022-10-16T12:31:06;4.70;;;1.50;;
70420;SDS011;57848;51.938;15.520;2022-10-16T12:33:39;4.10;;;1.20;;
70420;SDS011;57848;51.938;15.520;2022-10-16T12:36:11;4.23;;;1.10;;
70420;SDS011;57848;51.938;15.520;2022-10-16T12:38:46;4.53;;;1.20;;
70420;SDS011;57848;51.938;15.520;2022-10-16T12:41:23;4.93;;;1.52;;
70420;SDS011;57848;51.938;15.520;2022-10-16T12:43:54;4.70;;;1.48;;
70420;SDS011;57848;51.938;15.520;2022-10-16T12:46:26;8.60;;;1.70;;
70420;SDS011;57848;51.938;15.520;2022-10-16T12:52:02;4.85;;;1.50;;
70420;SDS011;57848;51.938;15.520;2022-10-16T12:54:29;4.35;;;1.40;;
70420;SDS011;57848;51.938;15.520;2022-10-16T12:57:19;6.17;;;1.73;;
70420;SDS011;57848;51.938;15.520;2022-10-16T13:11:02;4.60;;;1.50;;
70420;SDS011;57848;51.938;15.520;2022-10-16T13:16:59;4.65;;;1.08;;
70420;SDS011;57848;51.938;15.520;2022-10-16T13:28:05;5.88;;;1.60;;
70420;SDS011;57848;51.938;15.520;2022-10-16T13:30:51;7.18;;;2.25;;
70420;SDS011;57848;51.938;15.520;2022-10-16T13:33:32;6.28;;;2.33;;
70420;SDS011;57848;51.938;15.520;2022-10-16T13:36:00;5.20;;;1.67;;
70420;SDS011;57848;51.938;15.520;2022-10-16T13:38:27;4.77;;;1.70;;
70420;SDS011;57848;51.938;15.520;2022-10-16T13:41:00;5.32;;;2.05;;
70420;SDS011;57848;51.938;15.520;2022-10-16T13:43:29;5.38;;;1.80;;
70420;SDS011;57848;51.938;15.520;2022-10-16T13:46:03;9.07;;;2.20;;
70420;SDS011;57848;51.938;15.520;2022-10-16T13:48:36;5.47;;;2.10;;
70420;SDS011;57848;51.938;15.520;2022-10-16T13:51:02;5.40;;;1.80;;
70420;SDS011;57848;51.938;15.520;2022-10-16T13:53:29;7.55;;;2.00;;
70420;SDS011;57848;51.938;15.520;2022-10-16T13:55:58;5.23;;;1.87;;
70420;SDS011;57848;51.938;15.520;2022-10-16T13:58:25;5.00;;;1.70;;
70420;SDS011;57848;51.938;15.520;2022-10-16T14:00:58;6.18;;;1.73;;
70420;SDS011;57848;51.938;15.520;2022-10-16T14:03:25;6.60;;;1.90;;
70420;SDS011;57848;51.938;15.520;2022-10-16T14:05:53;4.90;;;1.75;;
70420;SDS011;57848;51.938;15.520;2022-10-16T14:08:21;5.93;;;2.20;;
70420;SDS011;57848;51.938;15.520;2022-10-16T14:10:49;5.30;;;2.00;;
70420;SDS011;57848;51.938;15.520;2022-10-16T14:13:18;5.43;;;1.75;;
70420;SDS011;57848;51.938;15.520;2022-10-16T14:15:47;5.20;;;2.03;;
70420;SDS011;57848;51.938;15.520;2022-10-16T14:18:23;5.10;;;1.92;;
70420;SDS011;57848;51.938;15.520;2022-10-16T14:20:50;6.75;;;2.00;;
70420;SDS011;57848;51.938;15.520;2022-10-16T14:25:53;5.07;;;1.98;;
70420;SDS011;57848;51.938;15.520;2022-10-16T14:28:19;5.57;;;2.10;;
70420;SDS011;57848;51.938;15.520;2022-10-16T14:30:53;6.32;;;1.45;;
70420;SDS011;57848;51.938;15.520;2022-10-16T14:35:59;5.00;;;1.77;;
70420;SDS011;57848;51.938;15.520;2022-10-16T14:38:26;5.33;;;2.00;;
70420;SDS011;57848;51.938;15.520;2022-10-16T14:40:52;5.03;;;1.63;;
70420;SDS011;57848;51.938;15.520;2022-10-16T14:43:20;4.30;;;1.40;;
70420;SDS011;57848;51.938;15.520;2022-10-16T14:45:51;5.32;;;1.83;;
70420;SDS011;57848;51.938;15.520;2022-10-16T14:48:18;5.80;;;1.60;;
70420;SDS011;57848;51.938;15.520;2022-10-16T14:50:44;5.37;;;1.40;;
70420;SDS011;57848;51.938;15.520;2022-10-16T14:53:11;4.97;;;1.33;;
70420;SDS011;57848;51.938;15.520;2022-10-16T14:55:37;5.00;;;1.70;;
70420;SDS011;57848;51.938;15.520;2022-10-16T14:58:03;4.55;;;1.38;;
70420;SDS011;57848;51.938;15.520;2022-10-16T15:00:28;5.53;;;1.50;;
70420;SDS011;57848;51.938;15.520;2022-10-16T15:02:54;4.20;;;1.20;;
70420;SDS011;57848;51.938;15.520;2022-10-16T15:05:28;5.15;;;1.20;;
70420;SDS011;57848;51.938;15.520;2022-10-16T15:07:54;4.47;;;1.23;;
70420;SDS011;57848;51.938;15.520;2022-10-16T15:10:21;5.82;;;1.42;;
70420;SDS011;57848;51.938;15.520;2022-10-16T15:12:47;5.13;;;1.38;;
70420;SDS011;57848;51.938;15.520;2022-10-16T15:17:47;5.75;;;1.73;;
70420;SDS011;57848;51.938;15.520;2022-10-16T15:20:21;6.57;;;1.60;;
70420;SDS011;57848;51.938;15.520;2022-10-16T15:22:47;5.53;;;1.50;;
70420;SDS011;57848;51.938;15.520;2022-10-16T15:25:30;8.57;;;1.80;;
70420;SDS011;57848;51.938;15.520;2022-10-16T15:28:19;8.25;;;2.30;;
70420;SDS011;57848;51.938;15.520;2022-10-16T15:30:46;5.03;;;1.37;;
70420;SDS011;57848;51.938;15.520;2022-10-16T15:33:22;7.50;;;1.85;;
70420;SDS011;57848;51.938;15.520;2022-10-16T15:35:50;5.53;;;1.35;;
70420;SDS011;57848;51.938;15.520;2022-10-16T15:38:17;4.53;;;1.33;;
70420;SDS011;57848;51.938;15.520;2022-10-16T15:40:44;6.45;;;1.95;;
70420;SDS011;57848;51.938;15.520;2022-10-16T15:43:10;5.43;;;1.73;;
70420;SDS011;57848;51.938;15.520;2022-10-16T15:45:36;5.35;;;1.75;;
70420;SDS011;57848;51.938;15.520;2022-10-16T15:48:02;8.45;;;2.30;;
70420;SDS011;57848;51.938;15.520;2022-10-16T15:50:28;9.13;;;2.20;;
70420;SDS011;57848;51.938;15.520;2022-10-16T15:52:55;9.13;;;2.50;;
70420;SDS011;57848;51.938;15.520;2022-10-16T15:55:20;6.80;;;3.00;;
70420;SDS011;57848;51.938;15.520;2022-10-16T15:57:45;8.18;;;2.70;;
70420;SDS011;57848;51.938;15.520;2022-10-16T16:00:12;6.73;;;2.77;;
70420;SDS011;57848;51.938;15.520;2022-10-16T16:02:42;6.63;;;1.98;;
70420;SDS011;57848;51.938;15.520;2022-10-16T16:05:09;9.50;;;2.10;;
70420;SDS011;57848;51.938;15.520;2022-10-16T16:07:35;5.10;;;1.90;;
70420;SDS011;57848;51.938;15.520;2022-10-16T16:10:02;6.22;;;2.13;;
70420;SDS011;57848;51.938;15.520;2022-10-16T16:12:29;7.15;;;2.40;;
70420;SDS011;57848;51.938;15.520;2022-10-16T16:14:54;6.00;;;2.20;;
70420;SDS011;57848;51.938;15.520;2022-10-16T16:17:20;7.73;;;2.20;;
70420;SDS011;57848;51.938;15.520;2022-10-16T16:19:45;11.47;;;3.03;;
70420;SDS011;57848;51.938;15.520;2022-10-16T16:22:11;7.70;;;2.90;;
70420;SDS011;57848;51.938;15.520;2022-10-16T16:24:36;9.47;;;3.03;;
70420;SDS011;57848;51.938;15.520;2022-10-16T16:27:01;7.10;;;3.00;;